メインページ
METAR-TAF:

METAR-TAF

空港 :

Revelstoke, ブリティッシュコロンビア州, カナダ

緯度: 50-58N, 経度: 118-11W, 海抜: 443m

現時点の気象観測

当レポートは47分前の10:00(UTC)に作成
無風
気温 2°C
湿度 100%
気圧 1022 hPa
視程: 0.2km

METAR: CYRV 221000Z AUTO 00000KT 1/8SM FG VV002 02/02 A3019 RMK SLP237

時間: 03:47 (10:47 UTC)


TAF: 見つかりません

4,000以上の空港の気象観測と天気予報(METAR報とTAF報)

利用可能な観測所は地図上に黄色い丸と赤い丸で示す。

丸の上にカーソルを重ねると観測所名を参照できる。

次にクリックすると気象観測と天気予報を参照できる。

マップの切り替え:黒色「×」印の緑ボタンをクリックして拡大、「-」印の緑ボタンをクリックして縮小、緑色の三角印をクリックして隣りの地図に切り替え


METAR-TAF: